createdAt,value
2019-05-07T00:00:45.318Z,11.50
2019-05-07T00:01:45.293Z,10.60
2019-05-07T00:02:45.284Z,10.50
2019-05-07T00:03:45.273Z,10.50
2019-05-07T00:04:45.261Z,10.10
2019-05-07T00:05:45.273Z,10.60
2019-05-07T00:06:45.242Z,11.40
2019-05-07T00:07:45.222Z,11.60
2019-05-07T00:08:45.222Z,10.90
2019-05-07T00:09:45.202Z,11.40
2019-05-07T00:10:45.193Z,10.90
2019-05-07T00:11:45.192Z,10.70
2019-05-07T00:12:45.171Z,10.90
2019-05-07T00:13:45.162Z,11.00
2019-05-07T00:14:58.142Z,10.30
2019-05-07T00:15:46.142Z,11.30
2019-05-07T00:16:45.141Z,10.70
2019-05-07T00:17:45.120Z,10.50
2019-05-07T00:18:45.105Z,10.50
2019-05-07T00:19:45.091Z,10.50
2019-05-07T00:20:45.080Z,10.40
2019-05-07T00:21:45.088Z,10.60
2019-05-07T00:22:45.060Z,10.40
2019-05-07T00:23:45.058Z,10.40
2019-05-07T00:24:45.039Z,10.60
2019-05-07T00:25:45.027Z,11.60
2019-05-07T00:26:45.029Z,9.80
2019-05-07T00:27:45.007Z,10.70
2019-05-07T00:28:45.003Z,10.60
2019-05-07T00:29:44.980Z,10.10
2019-05-07T00:30:44.967Z,10.20
2019-05-07T00:31:44.976Z,10.20
2019-05-07T00:32:44.948Z,10.20
2019-05-07T00:33:44.938Z,10.10
2019-05-07T00:34:44.927Z,11.00
2019-05-07T00:35:44.917Z,10.70
2019-05-07T00:36:44.917Z,10.80
2019-05-07T00:37:44.898Z,11.10
2019-05-07T00:38:44.877Z,11.00
2019-05-07T00:39:44.875Z,11.30
2019-05-07T00:40:44.857Z,11.00
2019-05-07T00:41:44.856Z,10.90
2019-05-07T00:42:44.836Z,11.00
2019-05-07T00:43:44.827Z,10.40
2019-05-07T00:44:44.816Z,10.00
2019-05-07T00:45:44.805Z,10.10
2019-05-07T00:46:44.813Z,10.00
2019-05-07T00:47:44.787Z,11.00
2019-05-07T00:48:44.774Z,10.30
2019-05-07T00:49:44.757Z,11.50
2019-05-07T00:50:44.745Z,11.30
2019-05-07T00:51:44.744Z,10.40
2019-05-07T00:52:44.725Z,9.80
2019-05-07T00:53:44.722Z,10.40
2019-05-07T00:54:44.704Z,10.70
2019-05-07T00:55:44.695Z,10.80
2019-05-07T00:56:44.693Z,9.50
2019-05-07T00:57:44.673Z,10.10
2019-05-07T00:58:44.664Z,10.00
2019-05-07T00:59:44.644Z,11.40
2019-05-07T01:00:44.634Z,11.30
2019-05-07T01:01:44.641Z,11.00
2019-05-07T01:02:44.612Z,10.80
2019-05-07T01:03:44.602Z,10.20
2019-05-07T01:04:44.593Z,10.90
2019-05-07T01:05:44.582Z,10.80
2019-05-07T01:06:44.582Z,10.50
2019-05-07T01:07:44.562Z,9.60
2019-05-07T01:08:44.551Z,10.60
2019-05-07T01:09:44.541Z,11.20
2019-05-07T01:10:44.521Z,11.30
2019-05-07T01:11:44.547Z,11.20
2019-05-07T01:12:44.501Z,10.20
2019-05-07T01:13:44.491Z,11.00
2019-05-07T01:14:44.480Z,10.90
2019-05-07T01:15:44.470Z,11.00
2019-05-07T01:16:44.465Z,11.00
2019-05-07T01:17:44.463Z,11.70
2019-05-07T01:18:44.440Z,11.00
2019-05-07T01:19:44.429Z,11.50
2019-05-07T01:20:44.410Z,10.50
2019-05-07T01:21:44.409Z,11.40
2019-05-07T01:22:44.408Z,11.20
2019-05-07T01:23:44.381Z,11.30
2019-05-07T01:24:44.370Z,10.40
2019-05-07T01:25:44.358Z,10.90
2019-05-07T01:26:44.347Z,11.00
2019-05-07T01:27:44.350Z,11.20
2019-05-07T01:28:44.327Z,11.20
2019-05-07T01:29:44.308Z,11.30
2019-05-07T01:30:44.306Z,11.40
2019-05-07T01:31:44.301Z,11.50
2019-05-07T01:32:44.298Z,11.30
2019-05-07T01:33:44.269Z,11.60
2019-05-07T01:34:44.260Z,11.60
2019-05-07T01:35:44.247Z,11.30
2019-05-07T01:36:44.236Z,11.40
2019-05-07T01:37:44.237Z,11.40
2019-05-07T01:38:44.222Z,11.50
2019-05-07T01:39:44.207Z,11.10
2019-05-07T01:40:44.196Z,10.30
2019-05-07T01:41:44.185Z,11.90
2019-05-07T01:42:44.185Z,11.90
2019-05-07T01:43:44.156Z,11.60
2019-05-07T01:44:44.153Z,11.40
2019-05-07T01:45:49.025Z,11.90
2019-05-07T01:46:45.124Z,11.80
2019-05-07T01:47:44.125Z,11.20
2019-05-07T01:48:44.105Z,11.40
2019-05-07T01:49:44.097Z,11.50
2019-05-07T01:50:44.086Z,12.40
2019-05-07T01:51:44.073Z,11.80
2019-05-07T01:52:44.234Z,11.60
2019-05-07T01:53:44.057Z,12.50
2019-05-07T01:54:47.139Z,12.30
2019-05-07T01:55:44.023Z,11.80
2019-05-07T01:56:44.013Z,11.60
2019-05-07T01:57:44.004Z,11.50
2019-05-07T01:58:44.003Z,12.30
2019-05-07T01:59:43.982Z,12.00
2019-05-07T02:00:43.972Z,12.10
2019-05-07T02:01:43.962Z,12.00
2019-05-07T02:02:43.952Z,11.30
2019-05-07T02:03:43.955Z,11.30
2019-05-07T02:04:43.931Z,12.40
2019-05-07T02:05:43.920Z,10.80
2019-05-07T02:06:43.901Z,11.60
2019-05-07T02:07:43.891Z,11.40
2019-05-07T02:08:43.900Z,12.30
2019-05-07T02:09:43.870Z,10.90
2019-05-07T02:10:43.860Z,11.40
2019-05-07T02:11:43.850Z,11.70
2019-05-07T02:12:43.840Z,11.60
2019-05-07T02:13:43.840Z,11.50
2019-05-07T02:14:43.819Z,11.50
2019-05-07T02:15:57.183Z,12.20
2019-05-07T02:16:44.791Z,11.30
2019-05-07T02:17:43.787Z,11.90
2019-05-07T02:18:43.790Z,11.20
2019-05-07T02:19:43.759Z,11.60
2019-05-07T02:20:43.748Z,11.20
2019-05-07T02:21:43.738Z,11.00
2019-05-07T02:22:43.728Z,11.80
2019-05-07T02:23:43.728Z,12.20
2019-05-07T02:24:43.711Z,11.90
2019-05-07T02:25:43.701Z,11.40
2019-05-07T02:26:43.704Z,11.90
2019-05-07T02:27:43.678Z,11.40
2019-05-07T02:28:43.677Z,10.90
2019-05-07T02:29:43.655Z,10.70
2019-05-07T02:30:44.592Z,11.60
2019-05-07T02:31:44.379Z,11.40
2019-05-07T02:32:43.659Z,12.50
2019-05-07T02:33:43.877Z,11.70
2019-05-07T02:34:44.402Z,12.00
2019-05-07T02:35:44.088Z,11.20
2019-05-07T02:36:43.717Z,10.90
2019-05-07T02:37:50.955Z,10.90
2019-05-07T02:38:44.566Z,11.90
2019-05-07T02:39:44.383Z,11.70
2019-05-07T02:40:43.630Z,11.40
2019-05-07T02:41:44.315Z,11.70
2019-05-07T02:42:44.258Z,12.00
2019-05-07T02:43:43.506Z,12.00
2019-05-07T02:44:43.902Z,10.30
2019-05-07T02:45:44.069Z,11.60
2019-05-07T02:46:43.633Z,11.70
2019-05-07T02:47:43.904Z,11.60
2019-05-07T02:48:43.455Z,12.40
2019-05-07T02:49:44.025Z,12.20
2019-05-07T02:50:43.798Z,11.60
2019-05-07T02:51:43.890Z,11.20
2019-05-07T02:52:44.000Z,10.90
2019-05-07T02:53:43.694Z,11.70
2019-05-07T02:54:43.753Z,12.40
2019-05-07T02:55:43.712Z,11.30
2019-05-07T02:56:43.579Z,11.30
2019-05-07T02:57:43.606Z,12.00
2019-05-07T02:58:43.585Z,12.90
2019-05-07T02:59:44.051Z,12.30
2019-05-07T03:00:43.616Z,12.70
2019-05-07T03:01:43.609Z,12.80
2019-05-07T03:02:43.855Z,12.60
2019-05-07T03:03:44.876Z,11.60
2019-05-07T03:04:43.665Z,12.50
2019-05-07T03:05:43.562Z,12.70
2019-05-07T03:06:44.178Z,12.60
2019-05-07T03:07:43.240Z,12.80
2019-05-07T03:08:43.985Z,12.90
2019-05-07T03:09:43.424Z,12.80
2019-05-07T03:10:43.734Z,12.70
2019-05-07T03:11:43.630Z,12.70
2019-05-07T03:12:43.302Z,12.70
2019-05-07T03:13:43.427Z,12.50
2019-05-07T03:14:43.832Z,13.00
2019-05-07T03:15:43.825Z,12.60
2019-05-07T03:16:48.450Z,13.20
2019-05-07T03:17:44.122Z,13.10
2019-05-07T03:18:43.981Z,13.10
2019-05-07T03:19:43.254Z,12.80
2019-05-07T03:20:43.165Z,12.70
2019-05-07T03:21:44.139Z,12.80
2019-05-07T03:22:43.152Z,13.70
2019-05-07T03:23:43.083Z,13.30
2019-05-07T03:24:43.602Z,12.70
2019-05-07T03:25:43.316Z,13.70
2019-05-07T03:26:43.658Z,12.90
2019-05-07T03:27:43.274Z,12.80
2019-05-07T03:28:43.037Z,12.90
2019-05-07T03:29:44.177Z,12.00
2019-05-07T03:30:45.703Z,12.80
2019-05-07T03:31:46.812Z,13.70
2019-05-07T03:32:47.563Z,12.80
2019-05-07T03:33:47.307Z,12.80
2019-05-07T03:34:46.650Z,12.60
2019-05-07T03:35:46.570Z,12.50
2019-05-07T03:36:47.615Z,12.20
2019-05-07T03:37:44.287Z,12.40
2019-05-07T03:38:43.921Z,12.40
2019-05-07T03:39:43.453Z,12.80
2019-05-07T03:40:44.805Z,12.70
2019-05-07T03:41:43.466Z,12.20
2019-05-07T03:42:43.932Z,12.10
2019-05-07T03:43:43.559Z,12.60
2019-05-07T03:44:44.651Z,13.30
2019-05-07T03:45:43.421Z,13.00
2019-05-07T03:46:56.833Z,13.00
2019-05-07T03:47:44.118Z,12.80
2019-05-07T03:48:43.970Z,12.60
2019-05-07T03:49:43.070Z,12.10
2019-05-07T03:50:43.261Z,12.30
2019-05-07T03:51:44.205Z,12.90
2019-05-07T03:52:43.091Z,13.90
2019-05-07T03:53:43.618Z,13.70
2019-05-07T03:54:43.200Z,12.90
2019-05-07T03:55:44.772Z,13.30
2019-05-07T03:56:43.609Z,13.50
2019-05-07T03:57:43.578Z,13.40
2019-05-07T03:58:43.507Z,13.00
2019-05-07T03:59:43.340Z,13.30
2019-05-07T04:00:44.314Z,12.50
2019-05-07T04:01:43.146Z,13.40
2019-05-07T04:02:43.680Z,13.50
2019-05-07T04:03:44.742Z,12.50
2019-05-07T04:04:43.256Z,13.90
2019-05-07T04:05:43.511Z,13.30
2019-05-07T04:06:43.423Z,12.50
2019-05-07T04:07:43.205Z,12.30
2019-05-07T04:08:43.438Z,11.90
2019-05-07T04:09:43.785Z,11.60
2019-05-07T04:10:44.376Z,12.20
2019-05-07T04:11:43.250Z,12.00
2019-05-07T04:12:44.181Z,12.00
2019-05-07T04:13:44.016Z,11.10
2019-05-07T04:14:43.192Z,11.70
2019-05-07T04:15:43.922Z,12.10
2019-05-07T04:16:44.085Z,12.80
2019-05-07T04:17:42.987Z,12.30
2019-05-07T04:18:43.691Z,12.80
2019-05-07T04:19:44.057Z,13.90
2019-05-07T04:20:43.558Z,14.50
2019-05-07T04:21:43.515Z,14.50
2019-05-07T04:22:43.313Z,15.00
2019-05-07T04:23:43.672Z,14.30
2019-05-07T04:24:42.995Z,12.50
2019-05-07T04:25:43.558Z,12.70
2019-05-07T04:26:43.031Z,14.00
2019-05-07T04:27:46.735Z,14.20
2019-05-07T04:28:43.595Z,13.80
2019-05-07T04:29:42.995Z,12.80
2019-05-07T04:30:43.777Z,13.60
2019-05-07T04:31:43.589Z,13.60
2019-05-07T04:32:43.363Z,14.20
2019-05-07T04:33:43.908Z,14.10
2019-05-07T04:34:44.484Z,13.80
2019-05-07T04:35:43.488Z,12.50
2019-05-07T04:36:43.579Z,12.20
2019-05-07T04:37:42.849Z,12.40
2019-05-07T04:38:44.025Z,12.00
2019-05-07T04:39:42.873Z,12.10
2019-05-07T04:40:43.384Z,11.80
2019-05-07T04:41:43.429Z,12.00
2019-05-07T04:42:42.794Z,12.70
2019-05-07T04:43:43.426Z,14.00
2019-05-07T04:44:43.745Z,17.60
2019-05-07T04:45:43.236Z,15.40
2019-05-07T04:46:47.531Z,13.00
2019-05-07T04:47:47.552Z,12.10
2019-05-07T04:48:43.828Z,12.30
2019-05-07T04:49:43.687Z,11.80
2019-05-07T04:50:46.642Z,11.60
2019-05-07T04:51:43.527Z,11.70
2019-05-07T04:52:43.690Z,11.40
2019-05-07T04:53:42.994Z,11.30
2019-05-07T04:54:43.744Z,11.60
2019-05-07T04:55:43.107Z,11.60
2019-05-07T04:56:43.625Z,11.90
2019-05-07T04:57:43.809Z,12.40
2019-05-07T04:58:43.323Z,14.90
2019-05-07T04:59:42.752Z,11.90
2019-05-07T05:00:43.089Z,11.70
2019-05-07T05:01:43.585Z,12.00
2019-05-07T05:02:43.531Z,12.40
2019-05-07T05:03:43.717Z,11.10
2019-05-07T05:04:43.924Z,11.50
2019-05-07T05:05:43.539Z,10.80
2019-05-07T05:06:42.453Z,11.50
2019-05-07T05:07:43.185Z,11.30
2019-05-07T05:08:43.527Z,11.50
2019-05-07T05:09:42.675Z,10.90
2019-05-07T05:10:43.275Z,11.40
2019-05-07T05:11:43.882Z,11.20
2019-05-07T05:12:42.866Z,11.70
2019-05-07T05:13:44.368Z,11.40
2019-05-07T05:14:43.518Z,11.30
2019-05-07T05:15:43.094Z,11.50
2019-05-07T05:16:42.555Z,11.20
2019-05-07T05:17:50.412Z,10.50
2019-05-07T05:18:42.795Z,10.90
2019-05-07T05:19:43.752Z,11.40
2019-05-07T05:20:42.226Z,11.70
2019-05-07T05:21:42.075Z,11.80
2019-05-07T05:22:42.491Z,12.30
2019-05-07T05:23:42.039Z,11.50
2019-05-07T05:24:42.394Z,12.30
2019-05-07T05:25:43.136Z,12.10
2019-05-07T05:26:41.966Z,11.70
2019-05-07T05:27:42.961Z,12.10
2019-05-07T05:28:42.102Z,12.00
2019-05-07T05:29:42.917Z,12.50
2019-05-07T05:30:42.412Z,12.10
2019-05-07T05:31:42.278Z,12.90
2019-05-07T05:32:42.438Z,14.00
2019-05-07T05:33:42.123Z,13.80
2019-05-07T05:34:42.616Z,13.50
2019-05-07T05:35:43.127Z,13.20
2019-05-07T05:36:42.564Z,12.70
2019-05-07T05:37:42.903Z,13.80
2019-05-07T05:38:42.326Z,27.40
2019-05-07T05:39:42.625Z,15.40
2019-05-07T05:40:42.713Z,11.40
2019-05-07T05:41:42.217Z,11.70
2019-05-07T05:42:42.863Z,12.00
2019-05-07T05:43:42.546Z,12.00
2019-05-07T05:44:41.826Z,12.90
2019-05-07T05:45:42.630Z,12.80
2019-05-07T05:46:42.810Z,12.50
2019-05-07T05:47:44.826Z,11.70
2019-05-07T05:48:42.483Z,12.40
2019-05-07T05:49:42.858Z,12.90
2019-05-07T05:50:42.248Z,14.50
2019-05-07T05:51:42.976Z,13.50
2019-05-07T05:52:42.491Z,12.10
2019-05-07T05:53:43.374Z,12.10
2019-05-07T05:54:42.624Z,12.20
2019-05-07T05:55:42.794Z,11.90
2019-05-07T05:56:42.691Z,12.20
2019-05-07T05:57:42.444Z,11.40
2019-05-07T05:58:43.111Z,11.70
2019-05-07T05:59:48.988Z,11.60
2019-05-07T06:00:42.383Z,11.40
2019-05-07T06:01:42.630Z,11.70
2019-05-07T06:02:44.040Z,11.60
2019-05-07T06:03:43.023Z,12.50
2019-05-07T06:04:42.037Z,11.40
2019-05-07T06:05:42.037Z,11.00
2019-05-07T06:06:42.368Z,11.90
2019-05-07T06:07:42.719Z,12.80
2019-05-07T06:08:43.370Z,12.10
2019-05-07T06:09:42.265Z,12.40
2019-05-07T06:10:42.488Z,12.40
2019-05-07T06:11:42.936Z,12.90
2019-05-07T06:12:42.839Z,12.40
2019-05-07T06:13:41.954Z,12.70
2019-05-07T06:14:42.452Z,12.40
2019-05-07T06:15:42.022Z,12.30
2019-05-07T06:16:42.035Z,13.10
2019-05-07T06:17:42.546Z,12.80
2019-05-07T06:18:41.857Z,12.60
2019-05-07T06:19:42.397Z,13.70
2019-05-07T06:20:42.816Z,15.30
2019-05-07T06:21:41.901Z,20.10
2019-05-07T06:22:42.478Z,14.80
2019-05-07T06:23:42.024Z,13.40
2019-05-07T06:24:42.698Z,11.70
2019-05-07T06:25:42.860Z,12.00
2019-05-07T06:26:42.568Z,12.40
2019-05-07T06:27:41.807Z,12.30
2019-05-07T06:28:42.535Z,12.20
2019-05-07T06:29:42.641Z,12.10
2019-05-07T06:30:41.792Z,11.80
2019-05-07T06:31:42.213Z,12.40
2019-05-07T06:32:42.966Z,11.80
2019-05-07T06:33:43.009Z,12.10
2019-05-07T06:34:44.520Z,11.70
2019-05-07T06:35:42.861Z,11.90
2019-05-07T06:36:42.376Z,11.60
2019-05-07T06:37:42.763Z,11.80
2019-05-07T06:38:42.689Z,11.20
2019-05-07T06:39:42.133Z,11.80
2019-05-07T06:40:42.353Z,11.90
2019-05-07T06:41:41.864Z,11.10
2019-05-07T06:42:42.776Z,10.90
2019-05-07T06:43:42.147Z,11.40
2019-05-07T06:44:42.747Z,11.40
2019-05-07T06:45:42.195Z,11.60
2019-05-07T06:46:41.923Z,11.10
2019-05-07T06:47:42.487Z,11.30
2019-05-07T06:48:43.667Z,10.60
2019-05-07T06:49:42.823Z,11.30
2019-05-07T06:50:43.103Z,11.90
2019-05-07T06:51:41.992Z,11.80
2019-05-07T06:52:42.566Z,11.80
2019-05-07T06:53:42.246Z,12.00
2019-05-07T06:54:42.725Z,11.30
2019-05-07T06:55:42.684Z,11.40
2019-05-07T06:56:42.110Z,11.80
2019-05-07T06:57:42.523Z,11.20
2019-05-07T06:58:41.913Z,12.00
2019-05-07T06:59:42.338Z,11.70
2019-05-07T07:00:42.245Z,11.20
2019-05-07T07:01:42.321Z,11.10
2019-05-07T07:02:41.956Z,11.30
2019-05-07T07:03:41.996Z,10.80
2019-05-07T07:04:42.367Z,10.70
2019-05-07T07:05:42.445Z,11.10
2019-05-07T07:06:42.648Z,11.40
2019-05-07T07:07:42.143Z,11.70
2019-05-07T07:08:41.976Z,10.60
2019-05-07T07:09:42.432Z,11.00
2019-05-07T07:10:42.561Z,11.00
2019-05-07T07:11:42.360Z,10.20
2019-05-07T07:12:42.474Z,10.50
2019-05-07T07:13:42.558Z,10.20
2019-05-07T07:14:42.361Z,10.50
2019-05-07T07:15:42.594Z,9.70
2019-05-07T07:16:42.056Z,9.40
2019-05-07T07:17:41.917Z,9.90
2019-05-07T07:18:49.539Z,9.60
2019-05-07T07:19:42.784Z,9.40
2019-05-07T07:20:40.444Z,9.20
2019-05-07T07:21:42.158Z,9.10
2019-05-07T07:22:42.462Z,9.20
2019-05-07T07:23:42.788Z,9.00
2019-05-07T07:24:42.405Z,9.50
2019-05-07T07:25:40.382Z,9.20
2019-05-07T07:26:42.221Z,9.30
2019-05-07T07:27:42.715Z,9.60
2019-05-07T07:28:40.362Z,9.40
2019-05-07T07:29:41.933Z,9.30
2019-05-07T07:30:42.053Z,9.10
2019-05-07T07:31:42.449Z,9.60
2019-05-07T07:32:42.403Z,9.30
2019-05-07T07:33:40.312Z,9.40
2019-05-07T07:34:42.544Z,9.00
2019-05-07T07:35:40.273Z,9.30
2019-05-07T07:36:42.221Z,8.80
2019-05-07T07:37:40.253Z,9.50
2019-05-07T07:38:42.062Z,9.30
2019-05-07T07:39:40.231Z,9.60
2019-05-07T07:40:42.215Z,8.80
2019-05-07T07:41:42.118Z,9.10
2019-05-07T07:42:42.530Z,9.30
2019-05-07T07:43:41.931Z,9.10
2019-05-07T07:44:42.428Z,9.00
2019-05-07T07:45:42.066Z,8.90
2019-05-07T07:46:42.290Z,8.30
2019-05-07T07:47:42.161Z,8.10
2019-05-07T07:48:40.131Z,7.60
2019-05-07T07:49:42.053Z,7.70
2019-05-07T07:50:42.096Z,7.90
2019-05-07T07:51:44.445Z,8.10
2019-05-07T07:52:42.018Z,7.90
2019-05-07T07:53:42.358Z,7.80
2019-05-07T07:54:40.079Z,7.70
2019-05-07T07:55:40.059Z,10.80
2019-05-07T07:56:50.185Z,9.00
2019-05-07T07:57:42.716Z,11.20
2019-05-07T07:58:41.937Z,9.70
2019-05-07T07:59:42.002Z,9.20
2019-05-07T08:00:40.007Z,9.20
2019-05-07T08:01:41.970Z,8.40
2019-05-07T08:02:42.274Z,8.50
2019-05-07T08:03:41.680Z,8.20
2019-05-07T08:04:42.451Z,7.60
2019-05-07T08:05:39.947Z,7.90
2019-05-07T08:06:41.821Z,8.20
2019-05-07T08:07:39.930Z,7.80
2019-05-07T08:08:39.919Z,8.60
2019-05-07T08:09:39.916Z,7.60
2019-05-07T08:10:39.895Z,8.40
2019-05-07T08:11:39.886Z,9.40
2019-05-07T08:12:42.050Z,8.00
2019-05-07T08:13:39.867Z,7.50
2019-05-07T08:14:39.867Z,7.80
2019-05-07T08:15:39.837Z,8.20
2019-05-07T08:16:39.834Z,7.90
2019-05-07T08:17:41.865Z,8.00
2019-05-07T08:18:39.886Z,8.10
2019-05-07T08:19:39.806Z,7.90
2019-05-07T08:20:39.793Z,7.10
2019-05-07T08:21:41.927Z,7.50
2019-05-07T08:22:42.160Z,7.80
2019-05-07T08:23:39.753Z,8.50
2019-05-07T08:24:39.763Z,16.10
2019-05-07T08:25:39.735Z,10.20
2019-05-07T08:26:39.724Z,9.20
2019-05-07T08:27:41.828Z,7.50
2019-05-07T08:28:41.824Z,6.80
2019-05-07T08:29:39.705Z,7.00
2019-05-07T08:30:41.539Z,6.80
2019-05-07T08:31:39.663Z,6.40
2019-05-07T08:32:39.813Z,6.50
2019-05-07T08:33:39.647Z,6.50
2019-05-07T08:34:39.642Z,5.70
2019-05-07T08:35:41.798Z,6.80
2019-05-07T08:36:39.613Z,6.10
2019-05-07T08:37:39.601Z,6.50
2019-05-07T08:38:39.593Z,6.50
2019-05-07T08:39:39.592Z,6.50
2019-05-07T08:40:41.767Z,6.30
2019-05-07T08:41:39.552Z,6.50
2019-05-07T08:42:41.790Z,6.20
2019-05-07T08:43:39.532Z,6.20
2019-05-07T08:44:39.521Z,6.60
2019-05-07T08:45:39.523Z,6.60
2019-05-07T08:46:39.503Z,6.70
2019-05-07T08:47:39.491Z,6.60
2019-05-07T08:48:39.481Z,6.30
2019-05-07T08:49:40.331Z,6.00
2019-05-07T08:50:39.471Z,6.40
2019-05-07T08:51:39.449Z,6.00
2019-05-07T08:52:39.432Z,6.30
2019-05-07T08:53:39.421Z,5.70
2019-05-07T08:54:39.410Z,5.70
2019-05-07T08:55:39.419Z,5.60
2019-05-07T08:56:39.390Z,5.30
2019-05-07T08:57:39.381Z,5.50
2019-05-07T08:58:39.370Z,5.20
2019-05-07T08:59:39.360Z,5.60
2019-05-07T09:00:39.367Z,5.60
2019-05-07T09:01:39.338Z,5.40
2019-05-07T09:02:39.319Z,5.00
2019-05-07T09:03:39.311Z,6.30
2019-05-07T09:04:39.299Z,6.80
2019-05-07T09:05:39.308Z,5.60
2019-05-07T09:06:39.279Z,5.60
2019-05-07T09:07:39.268Z,5.50
2019-05-07T09:08:39.258Z,5.80
2019-05-07T09:09:39.248Z,6.20
2019-05-07T09:10:39.248Z,5.70
2019-05-07T09:11:39.232Z,5.90
2019-05-07T09:12:39.215Z,5.40
2019-05-07T09:13:39.205Z,5.50
2019-05-07T09:14:39.188Z,6.40
2019-05-07T09:15:39.188Z,6.30
2019-05-07T09:16:39.170Z,6.20
2019-05-07T09:17:39.158Z,6.30
2019-05-07T09:18:39.147Z,5.70
2019-05-07T09:19:51.170Z,5.60
2019-05-07T09:20:42.377Z,5.70
2019-05-07T09:21:39.121Z,5.80
2019-05-07T09:22:39.101Z,5.70
2019-05-07T09:23:39.091Z,5.30
2019-05-07T09:24:39.090Z,5.40
2019-05-07T09:25:39.081Z,5.40
2019-05-07T09:26:39.060Z,6.50
2019-05-07T09:27:39.042Z,6.70
2019-05-07T09:28:39.035Z,6.00
2019-05-07T09:29:39.021Z,5.60
2019-05-07T09:30:39.041Z,5.60
2019-05-07T09:31:39.004Z,6.10
2019-05-07T09:32:38.989Z,5.20
2019-05-07T09:33:38.980Z,5.30
2019-05-07T09:34:38.960Z,5.40
2019-05-07T09:35:39.844Z,5.90
2019-05-07T09:36:38.962Z,5.90
2019-05-07T09:37:38.930Z,6.00
2019-05-07T09:38:38.921Z,5.90
2019-05-07T09:39:38.910Z,6.30
2019-05-07T09:40:38.906Z,6.50
2019-05-07T09:41:38.898Z,6.60
2019-05-07T09:42:38.879Z,6.70
2019-05-07T09:43:38.859Z,6.60
2019-05-07T09:44:38.853Z,6.60
2019-05-07T09:45:38.839Z,7.00
2019-05-07T09:46:38.839Z,6.60
2019-05-07T09:47:38.819Z,6.60
2019-05-07T09:48:38.810Z,6.20
2019-05-07T09:49:38.798Z,6.20
2019-05-07T09:50:38.788Z,5.80
2019-05-07T09:51:38.788Z,5.90
2019-05-07T09:52:38.758Z,6.40
2019-05-07T09:53:38.748Z,6.00
2019-05-07T09:54:38.738Z,6.20
2019-05-07T09:55:38.728Z,6.30
2019-05-07T09:56:38.728Z,6.30
2019-05-07T09:57:38.714Z,6.10
2019-05-07T09:58:39.268Z,6.20
2019-05-07T09:59:38.677Z,6.10
2019-05-07T10:00:38.668Z,5.80
2019-05-07T10:01:38.667Z,6.60
2019-05-07T10:02:38.648Z,5.90
2019-05-07T10:03:38.636Z,6.30
2019-05-07T10:04:38.628Z,5.90
2019-05-07T10:05:38.617Z,6.00
2019-05-07T10:06:38.616Z,6.10
2019-05-07T10:07:38.595Z,5.80
2019-05-07T10:08:38.577Z,6.10
2019-05-07T10:09:38.569Z,6.20
2019-05-07T10:10:38.561Z,5.90
2019-05-07T10:11:38.557Z,5.80
2019-05-07T10:12:38.537Z,5.80
2019-05-07T10:13:38.538Z,6.20
2019-05-07T10:14:38.516Z,5.20
2019-05-07T10:15:38.497Z,5.30
2019-05-07T10:16:38.495Z,6.20
2019-05-07T10:17:38.493Z,6.10
2019-05-07T10:18:38.466Z,6.30
2019-05-07T10:19:38.456Z,6.30
2019-05-07T10:20:38.447Z,6.50
2019-05-07T10:21:38.436Z,6.50
2019-05-07T10:22:38.436Z,6.50
2019-05-07T10:23:38.410Z,6.40
2019-05-07T10:24:38.399Z,6.00
2019-05-07T10:25:38.390Z,6.10
2019-05-07T10:26:40.103Z,6.10
2019-05-07T10:27:38.375Z,6.30
2019-05-07T10:28:38.367Z,6.10
2019-05-07T10:29:38.350Z,5.70
2019-05-07T10:30:38.337Z,5.70
2019-05-07T10:31:38.316Z,6.00
2019-05-07T10:32:38.324Z,6.20
2019-05-07T10:33:38.295Z,6.30
2019-05-07T10:34:38.285Z,6.40
2019-05-07T10:35:38.275Z,6.20
2019-05-07T10:36:38.265Z,5.70
2019-05-07T10:37:38.265Z,5.80
2019-05-07T10:38:38.243Z,6.00
2019-05-07T10:39:38.225Z,5.50
2019-05-07T10:40:38.216Z,5.50
2019-05-07T10:41:38.204Z,6.10
2019-05-07T10:42:38.206Z,6.30
2019-05-07T10:43:38.185Z,5.50
2019-05-07T10:44:38.196Z,5.60
2019-05-07T10:45:38.164Z,5.80
2019-05-07T10:46:38.154Z,5.90
2019-05-07T10:47:38.170Z,5.80
2019-05-07T10:48:38.125Z,5.70
2019-05-07T10:49:38.114Z,5.60
2019-05-07T10:50:39.316Z,5.70
2019-05-07T10:51:38.098Z,5.80
2019-05-07T10:52:38.094Z,5.60
2019-05-07T10:53:38.073Z,5.90
2019-05-07T10:54:38.054Z,6.00
2019-05-07T10:55:38.044Z,6.10
2019-05-07T10:56:38.033Z,5.80
2019-05-07T10:57:38.054Z,5.20
2019-05-07T10:58:38.014Z,5.40
2019-05-07T10:59:38.003Z,5.30
2019-05-07T11:00:37.991Z,5.40
2019-05-07T11:01:37.984Z,5.80
2019-05-07T11:02:39.307Z,5.80
2019-05-07T11:03:37.971Z,5.80
2019-05-07T11:04:42.146Z,6.50
2019-05-07T11:05:38.932Z,6.20
2019-05-07T11:06:37.922Z,6.40
2019-05-07T11:07:37.913Z,5.90
2019-05-07T11:08:37.913Z,5.80
2019-05-07T11:09:37.891Z,5.90
2019-05-07T11:10:37.883Z,6.00
2019-05-07T11:11:37.872Z,5.80
2019-05-07T11:12:37.852Z,6.00
2019-05-07T11:13:37.853Z,5.60
2019-05-07T11:14:37.831Z,6.00
2019-05-07T11:15:37.833Z,5.80
2019-05-07T11:16:37.811Z,5.40
2019-05-07T11:17:37.802Z,6.00
2019-05-07T11:18:37.801Z,5.90
2019-05-07T11:19:37.772Z,5.80
2019-05-07T11:20:48.935Z,6.10
2019-05-07T11:21:38.770Z,6.00
2019-05-07T11:22:37.768Z,5.90
2019-05-07T11:23:37.741Z,5.90
2019-05-07T11:24:37.722Z,5.90
2019-05-07T11:25:37.702Z,5.70
2019-05-07T11:26:37.692Z,5.60
2019-05-07T11:27:37.684Z,5.60
2019-05-07T11:28:37.693Z,5.20
2019-05-07T11:29:37.661Z,5.50
2019-05-07T11:30:37.650Z,6.30
2019-05-07T11:31:37.640Z,6.50
2019-05-07T11:32:37.630Z,6.20
2019-05-07T11:33:37.630Z,6.10
2019-05-07T11:34:37.604Z,5.90
2019-05-07T11:35:37.596Z,6.00
2019-05-07T11:36:37.580Z,6.30
2019-05-07T11:37:37.581Z,5.70
2019-05-07T11:38:37.570Z,5.50
2019-05-07T11:39:37.550Z,5.60
2019-05-07T11:40:37.530Z,5.60
2019-05-07T11:41:37.521Z,5.50
2019-05-07T11:42:37.511Z,6.50
2019-05-07T11:43:37.513Z,5.80
2019-05-07T11:44:37.490Z,5.60
2019-05-07T11:45:37.479Z,6.30
2019-05-07T11:46:37.472Z,5.40
2019-05-07T11:47:37.463Z,5.80
2019-05-07T11:48:37.459Z,6.20
2019-05-07T11:49:37.431Z,5.90
2019-05-07T11:50:37.420Z,5.80
2019-05-07T11:51:37.411Z,5.50
2019-05-07T11:52:37.400Z,5.60
2019-05-07T11:53:37.400Z,5.90
2019-05-07T11:54:37.378Z,6.00
2019-05-07T11:55:37.369Z,6.60
2019-05-07T11:56:37.360Z,5.80
2019-05-07T11:57:37.340Z,5.40
2019-05-07T11:58:37.339Z,5.80
2019-05-07T11:59:37.319Z,6.50
2019-05-07T12:00:37.310Z,5.50
2019-05-07T12:01:46.608Z,5.90
2019-05-07T12:02:38.288Z,6.00
2019-05-07T12:03:37.290Z,5.60
2019-05-07T12:04:37.260Z,6.10
2019-05-07T12:05:37.251Z,6.10
2019-05-07T12:06:37.245Z,6.10
2019-05-07T12:07:37.229Z,6.10
2019-05-07T12:08:44.563Z,6.00
2019-05-07T12:09:38.217Z,5.70
2019-05-07T12:10:37.205Z,5.70
2019-05-07T12:11:37.190Z,5.80
2019-05-07T12:12:37.169Z,6.10
2019-05-07T12:13:37.158Z,5.60
2019-05-07T12:14:37.159Z,5.50
2019-05-07T12:15:37.140Z,5.70
2019-05-07T12:16:37.129Z,5.80
2019-05-07T12:17:37.117Z,5.80
2019-05-07T12:18:37.107Z,6.10
2019-05-07T12:19:37.108Z,5.80
2019-05-07T12:20:37.084Z,6.50
2019-05-07T12:21:37.067Z,6.70
2019-05-07T12:22:37.058Z,6.40
2019-05-07T12:23:37.055Z,6.40
2019-05-07T12:24:37.048Z,6.30
2019-05-07T12:25:37.028Z,6.60
2019-05-07T12:26:37.016Z,6.50
2019-05-07T12:27:37.010Z,6.50
2019-05-07T12:28:36.987Z,6.00
2019-05-07T12:29:36.998Z,6.20
2019-05-07T12:30:36.968Z,6.30
2019-05-07T12:31:36.960Z,6.30
2019-05-07T12:32:36.947Z,5.90
2019-05-07T12:33:36.938Z,5.80
2019-05-07T12:34:36.939Z,5.60
2019-05-07T12:35:36.921Z,5.90
2019-05-07T12:36:36.901Z,6.60
2019-05-07T12:37:36.887Z,5.80
2019-05-07T12:38:36.878Z,5.90
2019-05-07T12:39:36.878Z,6.30
2019-05-07T12:40:36.857Z,6.00
2019-05-07T12:41:36.850Z,6.70
2019-05-07T12:42:36.841Z,6.10
2019-05-07T12:43:36.817Z,6.20
2019-05-07T12:44:36.907Z,6.50
2019-05-07T12:45:36.799Z,6.20
2019-05-07T12:46:36.790Z,6.10
2019-05-07T12:47:36.776Z,5.80
2019-05-07T12:48:36.802Z,5.60
2019-05-07T12:49:36.770Z,5.50
2019-05-07T12:50:36.748Z,5.60
2019-05-07T12:51:37.856Z,5.40
2019-05-07T12:52:36.717Z,5.10
2019-05-07T12:53:36.708Z,5.10
2019-05-07T12:54:36.838Z,5.50
2019-05-07T12:55:36.687Z,5.60
2019-05-07T12:56:36.677Z,5.80
2019-05-07T12:57:36.668Z,6.00
2019-05-07T12:58:36.656Z,5.30
2019-05-07T12:59:36.658Z,5.20
2019-05-07T13:00:36.627Z,5.40
2019-05-07T13:01:36.627Z,5.60
2019-05-07T13:02:40.804Z,5.00
2019-05-07T13:03:37.595Z,5.30